createdAt,value
2018-05-09T00:01:53.930Z,17.40
2018-05-09T00:04:22.667Z,17.80
2018-05-09T00:06:52.005Z,17.00
2018-05-09T00:09:20.810Z,18.60
2018-05-09T00:11:49.592Z,17.20
2018-05-09T00:14:19.494Z,16.60
2018-05-09T00:16:48.386Z,19.20
2018-05-09T00:19:17.814Z,16.40
2018-05-09T00:21:47.152Z,16.80
2018-05-09T00:24:16.676Z,17.60
2018-05-09T00:26:46.089Z,18.80
2018-05-09T00:29:15.876Z,18.40
2018-05-09T00:31:45.263Z,16.60
2018-05-09T00:34:14.021Z,17.00
2018-05-09T00:36:43.572Z,19.20
2018-05-09T00:39:12.806Z,20.00
2018-05-09T00:41:42.045Z,20.40
2018-05-09T00:44:11.260Z,21.60
2018-05-09T00:46:40.064Z,22.20
2018-05-09T00:49:09.007Z,26.80
2018-05-09T00:51:38.468Z,25.40
2018-05-09T00:54:18.716Z,27.00
2018-05-09T00:56:48.165Z,23.80
2018-05-09T00:59:17.069Z,25.00
2018-05-09T01:01:46.927Z,22.20
2018-05-09T01:04:15.772Z,22.20
2018-05-09T01:06:44.875Z,26.40
2018-05-09T01:09:14.123Z,29.40
2018-05-09T01:11:43.252Z,31.00
2018-05-09T01:14:12.517Z,31.00
2018-05-09T01:16:42.032Z,40.00
2018-05-09T01:19:11.181Z,51.00
2018-05-09T01:21:40.377Z,47.80
2018-05-09T01:24:10.251Z,37.20
2018-05-09T01:26:39.376Z,38.40
2018-05-09T01:29:08.849Z,37.20
2018-05-09T01:31:39.428Z,36.80
2018-05-09T01:34:08.523Z,36.20
2018-05-09T01:36:37.973Z,34.00
2018-05-09T01:39:07.607Z,44.20
2018-05-09T01:41:37.526Z,38.80
2018-05-09T01:44:07.229Z,38.60
2018-05-09T01:46:37.017Z,37.00
2018-05-09T01:49:06.564Z,37.00
2018-05-09T01:51:36.206Z,38.40
2018-05-09T01:54:05.272Z,35.80
2018-05-09T01:56:34.872Z,36.00
2018-05-09T01:59:04.033Z,35.00
2018-05-09T02:01:33.129Z,37.40
2018-05-09T02:04:02.536Z,35.00
2018-05-09T02:06:31.365Z,35.00
2018-05-09T02:09:00.720Z,35.60
2018-05-09T02:11:30.426Z,33.80
2018-05-09T02:14:00.130Z,34.00
2018-05-09T02:16:29.412Z,36.20
2018-05-09T02:18:58.390Z,34.80
2018-05-09T02:21:27.335Z,35.60
2018-05-09T02:23:56.911Z,36.40
2018-05-09T02:26:25.920Z,37.40
2018-05-09T02:28:55.626Z,38.40
2018-05-09T02:31:25.127Z,37.20
2018-05-09T02:33:55.153Z,36.80
2018-05-09T02:36:24.552Z,35.00
2018-05-09T02:38:53.240Z,36.40
2018-05-09T02:41:23.168Z,35.80
2018-05-09T02:43:52.219Z,38.20
2018-05-09T02:46:20.800Z,35.00
2018-05-09T02:48:49.193Z,35.40
2018-05-09T02:51:18.541Z,34.00
2018-05-09T02:53:48.050Z,33.40
2018-05-09T02:56:16.611Z,33.00
2018-05-09T02:58:46.030Z,32.40
2018-05-09T03:01:15.235Z,33.00
2018-05-09T03:03:44.286Z,31.40
2018-05-09T03:06:13.558Z,31.00
2018-05-09T03:08:43.138Z,31.20
2018-05-09T03:11:12.123Z,29.00
2018-05-09T03:13:41.167Z,30.80
2018-05-09T03:16:10.932Z,31.60
2018-05-09T03:18:40.659Z,30.20
2018-05-09T03:21:10.325Z,30.20
2018-05-09T03:23:39.060Z,29.40
2018-05-09T03:26:07.913Z,29.20
2018-05-09T03:28:37.168Z,29.40
2018-05-09T03:31:06.873Z,28.00
2018-05-09T03:33:35.975Z,27.00
2018-05-09T03:36:05.793Z,27.00
2018-05-09T03:38:35.342Z,23.60
2018-05-09T03:41:05.039Z,25.60
2018-05-09T03:43:34.900Z,27.00
2018-05-09T03:46:04.057Z,25.40
2018-05-09T03:48:33.286Z,24.40
2018-05-09T03:51:02.533Z,24.00
2018-05-09T03:53:31.421Z,24.00
2018-05-09T03:56:01.030Z,24.00
2018-05-09T03:58:31.296Z,23.20
2018-05-09T04:01:00.433Z,26.00
2018-05-09T04:03:41.252Z,24.80
2018-05-09T04:06:22.056Z,24.00
2018-05-09T04:09:02.438Z,25.80
2018-05-09T04:11:31.416Z,23.40
2018-05-09T04:14:00.947Z,23.00
2018-05-09T04:16:30.414Z,24.00
2018-05-09T04:19:00.129Z,23.80
2018-05-09T04:21:29.584Z,24.00
2018-05-09T04:23:58.464Z,25.40
2018-05-09T04:26:27.047Z,24.00
2018-05-09T04:28:56.259Z,24.80
2018-05-09T04:31:25.579Z,23.80
2018-05-09T04:33:55.447Z,26.80
2018-05-09T04:36:25.414Z,26.00
2018-05-09T04:38:54.611Z,26.00
2018-05-09T04:41:23.521Z,26.00
2018-05-09T04:43:52.531Z,24.40
2018-05-09T04:46:23.108Z,24.00
2018-05-09T04:48:51.837Z,23.00
2018-05-09T04:51:21.195Z,24.00
2018-05-09T04:53:50.361Z,27.00
2018-05-09T04:56:19.234Z,26.80
2018-05-09T04:58:48.194Z,27.80
2018-05-09T05:01:17.219Z,27.00
2018-05-09T05:03:47.058Z,27.80
2018-05-09T05:06:15.975Z,27.60
2018-05-09T05:08:45.083Z,27.80
2018-05-09T05:11:14.008Z,27.80
2018-05-09T05:13:43.599Z,28.40
2018-05-09T05:16:13.278Z,28.00
2018-05-09T05:18:43.069Z,26.00
2018-05-09T05:21:12.349Z,26.00
2018-05-09T05:23:41.796Z,26.00
2018-05-09T05:26:11.340Z,26.80
2018-05-09T05:28:40.599Z,27.60
2018-05-09T05:31:09.882Z,27.20
2018-05-09T05:33:39.185Z,27.00
2018-05-09T05:36:08.569Z,27.00
2018-05-09T05:38:39.400Z,27.80
2018-05-09T05:41:09.339Z,27.60
2018-05-09T05:43:39.376Z,27.40
2018-05-09T05:46:08.675Z,25.80
2018-05-09T05:48:38.204Z,25.60
2018-05-09T05:51:07.895Z,25.60
2018-05-09T05:53:37.205Z,26.00
2018-05-09T05:56:06.619Z,25.80
2018-05-09T05:58:35.950Z,26.00
2018-05-09T06:01:05.293Z,24.20
2018-05-09T06:03:34.278Z,24.00
2018-05-09T06:06:03.334Z,24.00
2018-05-09T06:08:32.650Z,24.00
2018-05-09T06:11:01.789Z,23.60
2018-05-09T06:13:31.117Z,25.20
2018-05-09T06:16:00.465Z,26.00
2018-05-09T06:18:30.151Z,23.80
2018-05-09T06:20:59.369Z,24.00
2018-05-09T06:23:28.275Z,25.80
2018-05-09T06:25:57.399Z,25.40
2018-05-09T06:28:26.913Z,25.60
2018-05-09T06:30:56.621Z,25.80
2018-05-09T06:33:25.970Z,26.00
2018-05-09T06:35:55.505Z,24.00
2018-05-09T06:38:24.376Z,23.00
2018-05-09T06:40:53.575Z,24.80
2018-05-09T06:43:23.187Z,24.40
2018-05-09T06:45:52.347Z,24.00
2018-05-09T06:48:21.540Z,24.40
2018-05-09T06:50:51.017Z,23.80
2018-05-09T06:53:20.201Z,26.00
2018-05-09T06:55:49.411Z,25.60
2018-05-09T06:58:18.635Z,24.40
2018-05-09T07:00:47.836Z,24.20
2018-05-09T07:03:17.440Z,25.80
2018-05-09T07:05:47.304Z,26.00
2018-05-09T07:08:17.315Z,26.20
2018-05-09T07:10:46.618Z,25.60
2018-05-09T07:13:16.499Z,24.20
2018-05-09T07:15:45.527Z,24.20
2018-05-09T07:18:15.360Z,25.00
2018-05-09T07:20:44.578Z,24.60
2018-05-09T07:23:14.258Z,24.00
2018-05-09T07:25:43.360Z,25.40
2018-05-09T07:28:12.227Z,24.40
2018-05-09T07:30:42.009Z,25.00
2018-05-09T07:33:11.493Z,25.20
2018-05-09T07:35:41.489Z,25.60
2018-05-09T07:38:10.762Z,25.20
2018-05-09T07:40:39.901Z,25.20
2018-05-09T07:43:09.303Z,25.40
2018-05-09T07:45:39.942Z,24.20
2018-05-09T07:48:09.379Z,26.20
2018-05-09T07:50:38.269Z,25.40
2018-05-09T07:53:07.687Z,23.80
2018-05-09T07:55:37.441Z,25.20
2018-05-09T07:58:06.731Z,24.40
2018-05-09T08:00:35.834Z,22.80
2018-05-09T08:03:05.258Z,25.00
2018-05-09T08:05:34.653Z,23.20
2018-05-09T08:08:04.719Z,23.00
2018-05-09T08:10:33.960Z,22.20
2018-05-09T08:13:03.762Z,22.20
2018-05-09T08:15:33.368Z,23.20
2018-05-09T08:18:02.751Z,22.80
2018-05-09T08:20:32.484Z,22.20
2018-05-09T08:23:01.659Z,23.20
2018-05-09T08:25:30.431Z,22.00
2018-05-09T08:27:59.595Z,21.20
2018-05-09T08:30:29.286Z,19.80
2018-05-09T08:32:58.192Z,21.60
2018-05-09T08:35:27.056Z,21.20
2018-05-09T08:37:56.615Z,20.40
2018-05-09T08:40:25.674Z,22.40
2018-05-09T08:42:55.879Z,22.60
2018-05-09T08:45:25.015Z,22.20
2018-05-09T08:47:55.116Z,20.80
2018-05-09T08:50:24.551Z,22.60
2018-05-09T08:52:53.610Z,21.00
2018-05-09T08:55:23.244Z,20.80
2018-05-09T08:57:52.207Z,22.40
2018-05-09T09:00:22.175Z,21.00
2018-05-09T09:02:51.769Z,22.00
2018-05-09T09:05:21.374Z,22.20
2018-05-09T09:07:50.143Z,19.20
2018-05-09T09:10:19.438Z,19.40
2018-05-09T09:12:49.513Z,20.80
2018-05-09T09:15:19.242Z,21.00
2018-05-09T09:17:48.869Z,20.40
2018-05-09T09:20:18.051Z,20.80
2018-05-09T09:22:47.151Z,21.40
2018-05-09T09:25:16.935Z,21.40
2018-05-09T09:27:46.374Z,19.20
2018-05-09T09:30:15.216Z,21.00
2018-05-09T09:32:44.989Z,20.80
2018-05-09T09:35:14.224Z,19.80
2018-05-09T09:37:44.407Z,20.40
2018-05-09T09:40:14.468Z,20.00
2018-05-09T09:42:44.180Z,19.80
2018-05-09T09:45:13.982Z,20.60
2018-05-09T09:47:43.499Z,20.20
2018-05-09T09:50:13.097Z,22.00
2018-05-09T09:52:42.307Z,21.40
2018-05-09T09:55:11.774Z,23.20
2018-05-09T09:57:41.646Z,20.40
2018-05-09T10:00:11.078Z,21.40
2018-05-09T10:02:40.487Z,19.80
2018-05-09T10:05:09.183Z,19.80
2018-05-09T10:07:38.740Z,20.40
2018-05-09T10:10:08.016Z,21.00
2018-05-09T10:12:37.390Z,20.80
2018-05-09T10:15:06.023Z,20.20
2018-05-09T10:17:36.107Z,19.80
2018-05-09T10:20:06.077Z,19.60
2018-05-09T10:22:35.744Z,19.60
2018-05-09T10:25:04.402Z,19.80
2018-05-09T10:27:33.648Z,19.80
2018-05-09T10:30:02.825Z,19.60
2018-05-09T10:32:32.519Z,20.00
2018-05-09T10:35:01.988Z,19.20
2018-05-09T10:37:31.339Z,19.80
2018-05-09T10:40:01.429Z,18.20
2018-05-09T10:42:31.129Z,15.80
2018-05-09T10:45:00.962Z,18.80
2018-05-09T10:47:30.723Z,16.20
2018-05-09T10:49:59.445Z,18.80
2018-05-09T10:52:30.161Z,19.20
2018-05-09T10:54:59.316Z,16.60
2018-05-09T10:57:28.553Z,17.20
2018-05-09T10:59:57.881Z,17.60
2018-05-09T11:02:26.643Z,16.20
2018-05-09T11:04:55.779Z,16.00
2018-05-09T11:07:25.175Z,17.20
2018-05-09T11:09:54.573Z,16.80
2018-05-09T11:12:23.752Z,16.80
2018-05-09T11:14:52.803Z,14.80
2018-05-09T11:17:21.943Z,16.00
2018-05-09T11:19:50.863Z,16.00
2018-05-09T11:22:20.826Z,15.00
2018-05-09T11:24:50.600Z,15.80
2018-05-09T11:27:19.559Z,16.60
2018-05-09T11:29:49.099Z,18.40
2018-05-09T11:32:18.303Z,17.80
2018-05-09T11:34:47.190Z,13.80
2018-05-09T11:37:16.141Z,18.20
2018-05-09T11:39:45.044Z,16.60
2018-05-09T11:42:14.321Z,20.00
2018-05-09T11:44:43.763Z,23.00
2018-05-09T11:47:13.730Z,24.40
2018-05-09T11:49:43.396Z,25.00
2018-05-09T11:52:12.599Z,23.60
2018-05-09T11:54:43.512Z,24.20
2018-05-09T11:57:12.962Z,25.40
2018-05-09T11:59:45.378Z,22.80
2018-05-09T12:02:14.662Z,22.40
2018-05-09T12:04:43.486Z,21.60
2018-05-09T12:07:12.646Z,21.60
2018-05-09T12:09:41.890Z,26.40
2018-05-09T12:12:11.465Z,27.00
2018-05-09T12:14:41.461Z,26.60
2018-05-09T12:17:11.839Z,27.20
2018-05-09T12:19:41.074Z,25.20
2018-05-09T12:22:11.247Z,27.00
2018-05-09T12:24:41.037Z,25.80
2018-05-09T12:27:10.352Z,27.00
2018-05-09T12:29:39.591Z,23.60
2018-05-09T12:32:08.401Z,25.60
2018-05-09T12:34:37.949Z,25.20
2018-05-09T12:37:07.836Z,24.60
2018-05-09T12:39:38.001Z,24.00
2018-05-09T12:42:06.879Z,24.60
2018-05-09T12:44:37.328Z,24.00
2018-05-09T12:47:06.537Z,26.20
2018-05-09T12:49:35.681Z,24.00
2018-05-09T12:52:05.326Z,24.80
2018-05-09T12:54:34.698Z,27.60
2018-05-09T12:57:04.391Z,26.80
2018-05-09T12:59:34.153Z,27.80
2018-05-09T13:02:03.123Z,26.20
2018-05-09T13:04:32.093Z,26.20
2018-05-09T13:07:01.734Z,28.40
2018-05-09T13:09:30.617Z,28.60
2018-05-09T13:11:59.278Z,26.20
2018-05-09T13:14:28.855Z,24.60
2018-05-09T13:16:57.945Z,27.20
2018-05-09T13:19:26.958Z,27.40
2018-05-09T13:21:56.155Z,26.60
2018-05-09T13:24:25.468Z,27.00
2018-05-09T13:26:54.888Z,27.00
2018-05-09T13:29:24.440Z,26.40
2018-05-09T13:31:53.553Z,26.60
2018-05-09T13:34:22.863Z,25.80
2018-05-09T13:36:52.529Z,25.00
2018-05-09T13:39:21.890Z,26.80
2018-05-09T13:41:51.661Z,25.20
2018-05-09T13:44:21.021Z,24.60
2018-05-09T13:46:51.413Z,24.40
2018-05-09T13:49:20.788Z,27.40
2018-05-09T13:51:51.042Z,26.60
2018-05-09T13:54:20.614Z,26.40
2018-05-09T13:56:50.130Z,26.60
2018-05-09T13:59:19.436Z,25.20
2018-05-09T14:01:48.497Z,26.00
2018-05-09T14:04:17.559Z,25.00
2018-05-09T14:06:46.201Z,26.60
2018-05-09T14:09:16.173Z,26.00
2018-05-09T14:11:45.524Z,26.20
2018-05-09T14:14:14.328Z,24.00
2018-05-09T14:16:42.817Z,26.20
2018-05-09T14:19:11.364Z,26.40
2018-05-09T14:21:39.985Z,24.60
2018-05-09T14:24:09.478Z,25.20
2018-05-09T14:26:39.581Z,24.60
2018-05-09T14:29:09.327Z,27.20
2018-05-09T14:31:38.722Z,24.60
2018-05-09T14:34:08.708Z,22.80
2018-05-09T14:36:38.093Z,25.20
2018-05-09T14:39:07.453Z,24.80
2018-05-09T14:41:36.417Z,24.80
2018-05-09T14:44:05.422Z,25.60
2018-05-09T14:46:34.733Z,25.20
2018-05-09T14:49:04.776Z,24.40
2018-05-09T14:51:34.015Z,24.40
2018-05-09T14:54:03.698Z,24.60
2018-05-09T14:56:32.756Z,25.20
2018-05-09T14:59:02.589Z,26.00
2018-05-09T15:01:32.019Z,24.60
2018-05-09T15:04:01.732Z,24.60
2018-05-09T15:06:30.842Z,24.60
2018-05-09T15:09:00.535Z,25.60
2018-05-09T15:11:29.349Z,24.00
2018-05-09T15:14:02.201Z,23.00
2018-05-09T15:16:31.157Z,24.00
2018-05-09T15:19:00.639Z,23.20
2018-05-09T15:21:31.106Z,24.80
2018-05-09T15:24:00.216Z,25.80
2018-05-09T15:26:30.267Z,23.80
2018-05-09T15:28:59.590Z,24.40
2018-05-09T15:31:29.009Z,24.20
2018-05-09T15:33:58.249Z,24.20
2018-05-09T15:36:27.318Z,24.40
2018-05-09T15:38:56.113Z,24.40
2018-05-09T15:41:25.324Z,23.20
2018-05-09T15:43:59.410Z,23.60
2018-05-09T15:46:28.736Z,23.60
2018-05-09T15:48:58.613Z,23.00
2018-05-09T15:51:28.472Z,23.60
2018-05-09T15:53:57.756Z,23.00
2018-05-09T15:56:27.360Z,23.00
2018-05-09T15:58:57.234Z,23.00
2018-05-09T16:01:26.338Z,22.40
2018-05-09T16:03:55.383Z,22.00
2018-05-09T16:06:24.711Z,22.80
2018-05-09T16:08:54.905Z,23.00
2018-05-09T16:11:24.987Z,21.60
2018-05-09T16:13:54.181Z,21.20
2018-05-09T16:16:23.554Z,20.60
2018-05-09T16:18:52.863Z,21.20
2018-05-09T16:21:21.654Z,21.80
2018-05-09T16:23:50.614Z,20.60
2018-05-09T16:26:20.153Z,23.20
2018-05-09T16:28:48.926Z,24.80
2018-05-09T16:31:18.858Z,22.80
2018-05-09T16:33:48.115Z,22.60
2018-05-09T16:36:17.235Z,24.80
2018-05-09T16:38:46.769Z,24.80
2018-05-09T16:41:15.535Z,24.80
2018-05-09T16:43:44.895Z,22.80
2018-05-09T16:46:14.669Z,23.80
2018-05-09T16:48:44.829Z,22.20
2018-05-09T16:51:14.159Z,21.40
2018-05-09T16:53:44.045Z,22.60
2018-05-09T16:56:13.265Z,21.00
2018-05-09T16:58:42.071Z,21.80
2018-05-09T17:01:11.423Z,22.20
2018-05-09T17:03:40.559Z,22.20
2018-05-09T17:06:09.875Z,22.40
2018-05-09T17:08:39.639Z,21.20
2018-05-09T17:11:09.269Z,22.20
2018-05-09T17:13:39.095Z,17.20
2018-05-09T17:16:08.781Z,22.20
2018-05-09T17:18:38.654Z,21.20
2018-05-09T17:21:13.532Z,22.00
2018-05-09T17:23:42.696Z,21.20
2018-05-09T17:26:11.565Z,20.60
2018-05-09T17:28:40.721Z,19.20
2018-05-09T17:31:10.712Z,21.20
2018-05-09T17:33:39.677Z,19.40
2018-05-09T17:36:08.734Z,19.20
2018-05-09T17:38:38.039Z,19.60
2018-05-09T17:41:07.083Z,18.80
2018-05-09T17:43:37.171Z,21.00
2018-05-09T17:46:06.549Z,20.60
2018-05-09T17:48:35.638Z,19.20
2018-05-09T17:51:05.310Z,20.00
2018-05-09T17:53:34.806Z,20.60
2018-05-09T17:56:05.797Z,19.40
2018-05-09T17:58:34.896Z,19.20
2018-05-09T18:01:03.739Z,19.20
2018-05-09T18:03:32.639Z,19.20
2018-05-09T18:06:01.821Z,19.20
2018-05-09T18:08:30.495Z,19.20
2018-05-09T18:10:59.957Z,19.00
2018-05-09T18:13:29.283Z,20.80
2018-05-09T18:15:58.966Z,21.00
2018-05-09T18:18:28.608Z,19.20
2018-05-09T18:20:57.816Z,20.40
2018-05-09T18:23:26.962Z,18.60
2018-05-09T18:25:56.425Z,20.00
2018-05-09T18:28:25.229Z,19.20
2018-05-09T18:30:54.774Z,20.80
2018-05-09T18:33:24.862Z,19.40
2018-05-09T18:35:54.319Z,19.20
2018-05-09T18:38:23.843Z,16.20
2018-05-09T18:40:53.277Z,20.80
2018-05-09T18:43:22.563Z,20.60
2018-05-09T18:45:51.848Z,20.60
2018-05-09T18:48:21.031Z,19.20
2018-05-09T18:50:49.959Z,20.80
2018-05-09T18:53:19.155Z,21.20
2018-05-09T18:55:48.904Z,20.20
2018-05-09T18:58:18.386Z,22.00
2018-05-09T19:00:48.022Z,20.40
2018-05-09T19:03:17.357Z,21.40
2018-05-09T19:05:47.376Z,20.20
2018-05-09T19:08:16.239Z,18.60
2018-05-09T19:10:45.677Z,20.00
2018-05-09T19:13:15.073Z,20.40
2018-05-09T19:15:44.464Z,19.20
2018-05-09T19:18:14.254Z,19.80
2018-05-09T19:20:43.568Z,20.80
2018-05-09T19:23:12.824Z,19.20
2018-05-09T19:25:41.889Z,22.00
2018-05-09T19:28:11.081Z,21.40
2018-05-09T19:30:40.314Z,22.00
2018-05-09T19:33:10.514Z,21.20
2018-05-09T19:35:39.772Z,21.20
2018-05-09T19:38:10.223Z,22.40
2018-05-09T19:40:39.470Z,22.20
2018-05-09T19:43:09.023Z,22.00
2018-05-09T19:45:37.628Z,22.20
2018-05-09T19:48:06.981Z,22.20
2018-05-09T19:50:36.309Z,26.00
2018-05-09T19:53:05.157Z,25.60
2018-05-09T19:55:34.442Z,23.00
2018-05-09T19:58:04.014Z,25.60
2018-05-09T20:00:34.649Z,24.20
2018-05-09T20:03:05.060Z,24.60
2018-05-09T20:05:34.107Z,25.20
2018-05-09T20:08:03.665Z,24.60
2018-05-09T20:10:32.314Z,24.60
2018-05-09T20:13:01.786Z,24.60
2018-05-09T20:15:30.763Z,23.60
2018-05-09T20:17:59.701Z,24.60
2018-05-09T20:20:29.216Z,24.60
2018-05-09T20:22:58.369Z,24.00
2018-05-09T20:25:27.824Z,25.80
2018-05-09T20:27:57.301Z,26.00
2018-05-09T20:30:33.177Z,23.20
2018-05-09T20:33:02.559Z,24.00
2018-05-09T20:35:31.865Z,23.20
2018-05-09T20:38:01.756Z,24.40
2018-05-09T20:40:30.844Z,25.00
2018-05-09T20:42:59.767Z,26.00
2018-05-09T20:45:29.522Z,24.00
2018-05-09T20:47:58.676Z,25.40
2018-05-09T20:50:27.598Z,26.00
2018-05-09T20:52:57.512Z,24.00
2018-05-09T20:55:29.858Z,26.00
2018-05-09T20:57:58.957Z,25.00
2018-05-09T21:00:28.312Z,26.00
2018-05-09T21:02:58.746Z,25.20
2018-05-09T21:05:28.173Z,26.40
2018-05-09T21:07:57.894Z,26.80
2018-05-09T21:10:26.778Z,26.20
2018-05-09T21:12:55.846Z,23.00
2018-05-09T21:15:24.808Z,23.00
2018-05-09T21:17:53.550Z,24.20
2018-05-09T21:20:22.920Z,24.80
2018-05-09T21:22:52.283Z,24.00
2018-05-09T21:25:21.231Z,23.60
2018-05-09T21:27:50.257Z,23.40
2018-05-09T21:30:20.203Z,24.20
2018-05-09T21:32:48.771Z,23.00
2018-05-09T21:35:17.954Z,23.00
2018-05-09T21:37:47.114Z,23.20
2018-05-09T21:40:16.279Z,22.20
2018-05-09T21:42:45.733Z,23.60
2018-05-09T21:45:14.924Z,23.20
2018-05-09T21:47:44.327Z,23.20
2018-05-09T21:50:13.349Z,22.40
2018-05-09T21:52:42.060Z,23.60
2018-05-09T21:55:11.262Z,22.20
2018-05-09T21:57:40.743Z,22.00
2018-05-09T22:00:10.327Z,22.20
2018-05-09T22:02:40.001Z,21.80
2018-05-09T22:05:09.536Z,20.40
2018-05-09T22:07:39.013Z,20.40
2018-05-09T22:10:07.871Z,22.00
2018-05-09T22:12:37.164Z,22.60
2018-05-09T22:15:06.118Z,22.20
2018-05-09T22:17:35.313Z,21.80
2018-05-09T22:20:04.574Z,21.20
2018-05-09T22:22:33.557Z,22.80
2018-05-09T22:25:03.757Z,23.00
2018-05-09T22:27:33.388Z,22.40
2018-05-09T22:30:02.922Z,22.40
2018-05-09T22:32:32.250Z,24.00
2018-05-09T22:35:01.202Z,22.20
2018-05-09T22:37:30.933Z,23.40
2018-05-09T22:39:59.915Z,23.20
2018-05-09T22:42:29.460Z,23.00
2018-05-09T22:44:59.023Z,23.00
2018-05-09T22:47:28.226Z,24.00
2018-05-09T22:49:58.267Z,22.00
2018-05-09T22:52:27.483Z,21.80
2018-05-09T22:54:56.698Z,22.20
2018-05-09T22:57:26.831Z,21.60
2018-05-09T22:59:56.565Z,21.00
2018-05-09T23:02:25.915Z,23.00
2018-05-09T23:04:55.079Z,19.80
2018-05-09T23:07:25.251Z,22.40
2018-05-09T23:09:54.678Z,22.00
2018-05-09T23:12:23.705Z,22.40
2018-05-09T23:14:52.705Z,23.00
2018-05-09T23:17:21.885Z,22.00
2018-05-09T23:19:51.483Z,19.80
2018-05-09T23:22:21.242Z,22.00
2018-05-09T23:24:50.805Z,21.00
2018-05-09T23:27:20.038Z,22.00
2018-05-09T23:29:49.488Z,22.00
2018-05-09T23:32:18.651Z,22.00
2018-05-09T23:34:47.631Z,22.00
2018-05-09T23:37:16.948Z,21.60
2018-05-09T23:39:46.147Z,24.60
2018-05-09T23:42:16.200Z,25.60
2018-05-09T23:44:44.928Z,24.00
2018-05-09T23:47:14.026Z,24.00
2018-05-09T23:49:43.308Z,28.20
2018-05-09T23:52:12.107Z,28.00
2018-05-09T23:54:42.102Z,25.20
2018-05-09T23:57:11.342Z,26.00
2018-05-09T23:59:40.557Z,28.00
